Back to Top

Language: 

My Weather Underground Personal Weather Station Historical Data with Graphs...

Delerius Weather Station Historical Data
Daily Summary for February 09, 2018 Units:  English    Metric   Both
« Previous Day
Next Day »
Daily Weekly Monthly Yearly Custom
  High: Low: Average:
Temperature: 44.8 °F 32.9 °F 39.5 °F
Dew Point: 42.6 °F 28.0 °F 34.4 °F
Humidity: 95 % 57 % 83 %
Wind Speed: 17.0 mph 0.0 mph 8.3 mph
Wind Gust: 31.0 mph - -
Wind:- - WNW
Pressure: 29.99 in 29.56 in -
Precipitation: 0.02 in    
Historical Graphs
 
 
Tabular Data for February 09, 2018
Time Temperature Dew Point Pressure Wind Wind Speed Wind Gust Humidity Rainfall Rate (Hourly) solar Conditions
00:00 44.8 °F 42.6 °F 29.64 in SW 8.0 mph 12.0 mph 92 % 0.00 in 0 W/m2
00:05 44.6 °F 42.4 °F 29.64 in SW 8.0 mph 13.0 mph 92 % 0.00 in 0 W/m2
00:10 44.6 °F 42.4 °F 29.64 in SW 8.0 mph 11.0 mph 92 % 0.00 in 0 W/m2
00:15 44.4 °F 42.2 °F 29.63 in SW 8.0 mph 13.0 mph 92 % 0.00 in 0 W/m2
00:20 44.4 °F 42.2 °F 29.63 in SSW 7.0 mph 12.0 mph 92 % 0.00 in 0 W/m2
00:25 44.4 °F 42.5 °F 29.63 in SSW 8.0 mph 10.0 mph 93 % 0.00 in 0 W/m2
00:30 44.4 °F 42.5 °F 29.63 in SW 8.0 mph 10.0 mph 93 % 0.00 in 0 W/m2
00:35 44.4 °F 42.5 °F 29.63 in SW 8.0 mph 12.0 mph 93 % 0.00 in 0 W/m2
00:40 44.2 °F 42.3 °F 29.62 in SSW 6.0 mph 10.0 mph 93 % 0.00 in 0 W/m2
00:45 44.2 °F 42.3 °F 29.62 in SSW 9.0 mph 13.0 mph 93 % 0.00 in 0 W/m2
00:50 44.2 °F 42.3 °F 29.62 in SSW 8.0 mph 12.0 mph 93 % 0.00 in 0 W/m2
00:55 44.2 °F 42.3 °F 29.62 in SW 7.0 mph 9.0 mph 93 % 0.00 in 0 W/m2
01:00 44.2 °F 42.3 °F 29.62 in SW 8.0 mph 11.0 mph 93 % 0.00 in 0 W/m2
01:05 44.2 °F 42.3 °F 29.62 in SW 6.0 mph 10.0 mph 93 % 0.00 in 0 W/m2
01:10 44.2 °F 42.3 °F 29.62 in SW 7.0 mph 11.0 mph 93 % 0.00 in 0 W/m2
01:15 44.2 °F 42.3 °F 29.62 in WSW 4.0 mph 8.0 mph 93 % 0.00 in 0 W/m2
01:20 44.2 °F 42.3 °F 29.61 in WSW 5.0 mph 8.0 mph 93 % 0.00 in 0 W/m2
01:25 44.2 °F 42.3 °F 29.62 in WSW 4.0 mph 7.0 mph 93 % 0.00 in 0 W/m2
01:30 44.2 °F 42.3 °F 29.61 in WNW 4.0 mph 7.0 mph 93 % 0.00 in 0 W/m2
01:35 44.1 °F 42.2 °F 29.61 in WNW 4.0 mph 6.0 mph 93 % 0.00 in 0 W/m2
01:40 43.9 °F 42.0 °F 29.61 in NW 2.0 mph 7.0 mph 93 % 0.00 in 0 W/m2
01:45 43.5 °F 41.6 °F 29.61 in WNW 5.0 mph 10.0 mph 93 % 0.00 in 0 W/m2
01:50 43.3 °F 41.5 °F 29.61 in WNW 5.0 mph 8.0 mph 93 % 0.00 in 0 W/m2
01:55 43.2 °F 41.3 °F 29.61 in WNW 7.0 mph 10.0 mph 93 % 0.00 in 0 W/m2
02:00 43.2 °F 41.3 °F 29.61 in WNW 6.0 mph 8.0 mph 93 % 0.00 in 0 W/m2
02:05 43.0 °F 41.1 °F 29.61 in WNW 6.0 mph 9.0 mph 93 % 0.00 in 0 W/m2
02:10 43.0 °F 41.1 °F 29.61 in WNW 3.0 mph 5.0 mph 93 % 0.00 in 0 W/m2
02:15 43.0 °F 41.1 °F 29.61 in WNW 3.0 mph 5.0 mph 93 % 0.00 in 0 W/m2
02:20 42.8 °F 40.9 °F 29.60 in WNW 2.0 mph 5.0 mph 93 % 0.00 in 0 W/m2
02:25 42.6 °F 40.7 °F 29.60 in WNW 1.0 mph 4.0 mph 93 % 0.00 in 0 W/m2
02:30 42.4 °F 40.6 °F 29.59 in Calm   1.0 mph 93 % 0.00 in 0 W/m2
02:35 42.3 °F 40.4 °F 29.60 in WNW 1.0 mph 2.0 mph 93 % 0.00 in 0 W/m2
02:40 42.3 °F 40.4 °F 29.59 in Calm     93 % 0.00 in 0 W/m2
02:45 42.1 °F 40.2 °F 29.59 in Calm     93 % 0.00 in 0 W/m2
02:50 41.7 °F 39.8 °F 29.58 in Calm     93 % 0.00 in 0 W/m2
02:55 41.4 °F 39.5 °F 29.58 in Calm     93 % 0.00 in 0 W/m2
03:00 41.2 °F 39.3 °F 29.58 in Calm     93 % 0.00 in 0 W/m2
03:05 41.0 °F 39.1 °F 29.58 in Calm     93 % 0.00 in 0 W/m2
03:10 40.8 °F 39.0 °F 29.58 in Calm     93 % 0.00 in 0 W/m2
03:15 40.8 °F 39.0 °F 29.58 in Calm     93 % 0.00 in 0 W/m2
03:20 40.6 °F 38.8 °F 29.58 in Calm     93 % 0.00 in 0 W/m2
03:25 40.6 °F 39.0 °F 29.57 in Calm     94 % 0.00 in 0 W/m2
03:30 40.5 °F 38.9 °F 29.57 in Calm     94 % 0.00 in 0 W/m2
03:36 40.5 °F 38.9 °F 29.57 in WNW 1.0 mph 3.0 mph 94 % 0.00 in 0 W/m2
03:41 40.5 °F 38.9 °F 29.57 in Calm     94 % 0.00 in 0 W/m2
03:46 40.5 °F 38.9 °F 29.57 in WNW 1.0 mph 2.0 mph 94 % 0.00 in 0 W/m2
03:51 40.5 °F 38.9 °F 29.57 in WNW 3.0 mph 5.0 mph 94 % 0.00 in 0 W/m2
03:56 40.5 °F 38.9 °F 29.57 in WNW 3.0 mph 5.0 mph 94 % 0.00 in 0 W/m2
04:01 40.5 °F 38.9 °F 29.57 in WNW 3.0 mph 6.0 mph 94 % 0.00 in 0 W/m2
04:06 40.3 °F 38.7 °F 29.57 in WNW 1.0 mph 4.0 mph 94 % 0.00 in 0 W/m2
04:11 40.1 °F 38.5 °F 29.57 in Calm     94 % 0.00 in 0 W/m2
04:16 39.9 °F 38.3 °F 29.57 in Calm     94 % 0.00 in 0 W/m2
04:21 39.7 °F 38.2 °F 29.57 in Calm     94 % 0.00 in 0 W/m2
04:26 39.6 °F 38.0 °F 29.56 in Calm     94 % 0.00 in 0 W/m2
04:31 39.6 °F 38.0 °F 29.57 in Calm   2.0 mph 94 % 0.00 in 0 W/m2
04:36 39.4 °F 37.8 °F 29.57 in Calm     94 % 0.00 in 0 W/m2
04:41 39.4 °F 37.8 °F 29.57 in Calm     94 % 0.00 in 0 W/m2
04:46 39.4 °F 37.8 °F 29.57 in Calm     94 % 0.00 in 0 W/m2
04:51 39.6 °F 38.2 °F 29.57 in WNW 1.0 mph 4.0 mph 95 % 0.00 in 0 W/m2
04:56 39.6 °F 38.2 °F 29.57 in WNW 1.0 mph 3.0 mph 95 % 0.00 in 0 W/m2
05:01 39.6 °F 38.2 °F 29.57 in Calm   1.0 mph 95 % 0.00 in 0 W/m2
05:06 39.6 °F 38.2 °F 29.57 in West 1.0 mph 5.0 mph 95 % 0.00 in 0 W/m2
05:11 39.6 °F 38.2 °F 29.57 in West 1.0 mph 4.0 mph 95 % 0.00 in 0 W/m2
05:16 39.7 °F 38.4 °F 29.57 in West 3.0 mph 6.0 mph 95 % 0.00 in 0 W/m2
05:21 39.9 °F 38.3 °F 29.58 in WSW 11.0 mph 15.0 mph 94 % 0.00 in 0 W/m2
05:26 40.3 °F 38.7 °F 29.58 in West 14.0 mph 21.0 mph 94 % 0.01 in 0 W/m2
05:31 40.3 °F 38.4 °F 29.58 in West 11.0 mph 19.0 mph 93 % 0.01 in 0 W/m2
05:36 39.7 °F 37.6 °F 29.58 in West 10.0 mph 14.0 mph 92 % 0.01 in 0 W/m2
05:41 39.6 °F 37.4 °F 29.58 in WNW 11.0 mph 15.0 mph 92 % 0.01 in 0 W/m2
05:46 39.2 °F 37.1 °F 29.58 in West 8.0 mph 11.0 mph 92 % 0.01 in 0 W/m2
05:51 39.0 °F 36.9 °F 29.58 in West 8.0 mph 14.0 mph 92 % 0.01 in 0 W/m2
05:56 38.7 °F 36.5 °F 29.59 in West 10.0 mph 14.0 mph 92 % 0.01 in 0 W/m2
06:01 38.5 °F 36.4 °F 29.59 in West 7.0 mph 12.0 mph 92 % 0.01 in 0 W/m2
06:07 38.3 °F 36.2 °F 29.59 in West 8.0 mph 12.0 mph 92 % 0.01 in 0 W/m2
06:12 38.1 °F 36.0 °F 29.59 in West 10.0 mph 14.0 mph 92 % 0.01 in 0 W/m2
06:17 37.9 °F 35.8 °F 29.58 in West 9.0 mph 13.0 mph 92 % 0.01 in 0 W/m2
06:22 37.9 °F 35.8 °F 29.59 in West 9.0 mph 14.0 mph 92 % 0.00 in 0 W/m2
06:27 37.8 °F 35.6 °F 29.59 in West 8.0 mph 18.0 mph 92 % 0.00 in 0 W/m2
06:32 37.8 °F 35.6 °F 29.59 in West 10.0 mph 16.0 mph 92 % 0.00 in 0 W/m2
06:37 37.8 °F 35.6 °F 29.59 in WSW 9.0 mph 16.0 mph 92 % 0.00 in 0 W/m2
06:42 37.9 °F 35.8 °F 29.59 in West 8.0 mph 14.0 mph 92 % 0.00 in 0 W/m2
06:47 37.9 °F 36.1 °F 29.59 in West 9.0 mph 14.0 mph 93 % 0.00 in 0 W/m2
06:52 37.9 °F 36.1 °F 29.59 in West 9.0 mph 13.0 mph 93 % 0.00 in 0 W/m2
06:57 38.1 °F 36.0 °F 29.59 in West 11.0 mph 15.0 mph 92 % 0.00 in 0 W/m2
07:02 38.1 °F 36.0 °F 29.59 in West 11.0 mph 20.0 mph 92 % 0.01 in 0 W/m2
07:07 38.1 °F 36.0 °F 29.60 in West 10.0 mph 18.0 mph 92 % 0.01 in 0 W/m2
07:12 38.3 °F 36.2 °F 29.60 in WSW 11.0 mph 19.0 mph 92 % 0.01 in 0 W/m2
07:17 38.1 °F 36.0 °F 29.60 in West 10.0 mph 15.0 mph 92 % 0.01 in 0 W/m2
07:22 38.1 °F 35.7 °F 29.60 in West 10.0 mph 14.0 mph 91 % 0.01 in 0 W/m2
07:27 38.1 °F 35.7 °F 29.60 in West 14.0 mph 20.0 mph 91 % 0.01 in 0 W/m2
07:32 38.1 °F 35.7 °F 29.60 in West 13.0 mph 20.0 mph 91 % 0.01 in 0 W/m2
07:37 38.1 °F 35.7 °F 29.61 in WNW 10.0 mph 15.0 mph 91 % 0.01 in 0 W/m2
07:42 38.1 °F 35.7 °F 29.61 in West 11.0 mph 16.0 mph 91 % 0.01 in 5 W/m2
07:47 38.1 °F 35.7 °F 29.61 in West 9.0 mph 16.0 mph 91 % 0.01 in 5 W/m2
07:52 37.9 °F 35.5 °F 29.61 in West 12.0 mph 19.0 mph 91 % 0.01 in 7 W/m2
07:57 37.9 °F 35.5 °F 29.62 in West 14.0 mph 23.0 mph 91 % 0.01 in 11 W/m2
08:02 38.1 °F 35.7 °F 29.62 in WNW 14.0 mph 20.0 mph 91 % 0.00 in 14 W/m2
08:07 38.1 °F 35.7 °F 29.62 in WNW 9.0 mph 13.0 mph 91 % 0.00 in 18 W/m2
08:12 38.1 °F 35.7 °F 29.62 in WNW 12.0 mph 16.0 mph 91 % 0.00 in 19 W/m2
08:17 38.1 °F 35.7 °F 29.62 in WNW 13.0 mph 21.0 mph 91 % 0.00 in 19 W/m2
08:22 38.1 °F 35.7 °F 29.62 in West 9.0 mph 16.0 mph 91 % 0.00 in 23 W/m2
08:27 38.1 °F 35.7 °F 29.62 in WNW 11.0 mph 16.0 mph 91 % 0.00 in 21 W/m2
08:32 38.1 °F 35.4 °F 29.62 in WNW 12.0 mph 19.0 mph 90 % 0.00 in 16 W/m2
08:37 38.1 °F 35.4 °F 29.63 in WNW 12.0 mph 18.0 mph 90 % 0.00 in 16 W/m2
08:43 37.9 °F 35.3 °F 29.63 in WNW 15.0 mph 23.0 mph 90 % 0.00 in 18 W/m2
08:48 37.8 °F 35.1 °F 29.62 in WNW 15.0 mph 22.0 mph 90 % 0.00 in 19 W/m2
08:53 37.8 °F 35.1 °F 29.63 in WNW 9.0 mph 15.0 mph 90 % 0.00 in 14 W/m2
08:58 37.8 °F 35.1 °F 29.64 in WNW 10.0 mph 18.0 mph 90 % 0.00 in 19 W/m2
09:03 37.8 °F 35.1 °F 29.64 in WNW 14.0 mph 26.0 mph 90 % 0.00 in 33 W/m2
09:08 37.9 °F 35.3 °F 29.64 in WNW 16.0 mph 25.0 mph 90 % 0.00 in 165 W/m2
09:13 38.1 °F 35.4 °F 29.64 in WNW 12.0 mph 19.0 mph 90 % 0.00 in 162 W/m2
09:18 38.5 °F 35.8 °F 29.65 in WNW 16.0 mph 23.0 mph 90 % 0.00 in 199 W/m2
09:23 38.5 °F 35.8 °F 29.65 in WNW 12.0 mph 21.0 mph 90 % 0.00 in 190 W/m2
09:28 38.7 °F 35.7 °F 29.66 in WNW 12.0 mph 21.0 mph 89 % 0.00 in 223 W/m2
09:33 39.0 °F 36.1 °F 29.66 in WNW 15.0 mph 21.0 mph 89 % 0.00 in 77 W/m2
09:38 39.2 °F 36.2 °F 29.66 in WNW 11.0 mph 20.0 mph 89 % 0.00 in 267 W/m2
09:43 39.6 °F 36.3 °F 29.67 in WNW 15.0 mph 23.0 mph 88 % 0.00 in 190 W/m2
09:48 39.7 °F 36.5 °F 29.67 in WNW 12.0 mph 19.0 mph 88 % 0.00 in 102 W/m2
09:53 39.9 °F 36.4 °F 29.67 in WNW 15.0 mph 26.0 mph 87 % 0.00 in 278 W/m2
09:58 40.3 °F 36.4 °F 29.68 in NW 11.0 mph 20.0 mph 86 % 0.00 in 334 W/m2
10:03 40.5 °F 36.6 °F 29.68 in WNW 13.0 mph 24.0 mph 86 % 0.00 in 338 W/m2
10:08 40.6 °F 36.5 °F 29.68 in NW 10.0 mph 16.0 mph 85 % 0.00 in 338 W/m2
10:13 40.8 °F 36.7 °F 29.68 in WNW 14.0 mph 29.0 mph 85 % 0.00 in 121 W/m2
10:18 40.8 °F 36.4 °F 29.69 in WNW 12.0 mph 19.0 mph 84 % 0.00 in 390 W/m2
10:23 40.8 °F 36.1 °F 29.69 in NW 11.0 mph 23.0 mph 83 % 0.00 in 255 W/m2
10:28 40.8 °F 35.7 °F 29.69 in NW 15.0 mph 23.0 mph 82 % 0.00 in 163 W/m2
10:33 40.6 °F 35.6 °F 29.70 in WNW 17.0 mph 27.0 mph 82 % 0.00 in 158 W/m2
10:38 40.5 °F 35.4 °F 29.70 in NW 12.0 mph 20.0 mph 82 % 0.00 in 167 W/m2
10:43 40.5 °F 35.4 °F 29.71 in NW 13.0 mph 20.0 mph 82 % 0.00 in 186 W/m2
10:48 40.5 °F 35.4 °F 29.71 in WNW 15.0 mph 28.0 mph 82 % 0.00 in 253 W/m2
10:53 40.5 °F 35.4 °F 29.71 in WNW 13.0 mph 20.0 mph 82 % 0.00 in 192 W/m2
10:58 40.6 °F 35.3 °F 29.72 in NW 13.0 mph 20.0 mph 81 % 0.00 in 332 W/m2
11:03 40.8 °F 35.4 °F 29.73 in NW 11.0 mph 26.0 mph 81 % 0.00 in 469 W/m2
11:08 41.2 °F 35.2 °F 29.73 in NW 13.0 mph 25.0 mph 79 % 0.00 in 211 W/m2
11:13 41.4 °F 35.0 °F 29.73 in NW 13.0 mph 23.0 mph 78 % 0.00 in 176 W/m2
11:18 41.5 °F 34.9 °F 29.74 in NW 11.0 mph 18.0 mph 77 % 0.00 in 250 W/m2
11:23 41.5 °F 34.2 °F 29.74 in NW 13.0 mph 21.0 mph 75 % 0.00 in 190 W/m2
11:29 41.7 °F 34.4 °F 29.74 in NW 15.0 mph 26.0 mph 75 % 0.00 in 255 W/m2
11:34 41.7 °F 34.4 °F 29.75 in NW 14.0 mph 24.0 mph 75 % 0.00 in 204 W/m2
11:39 41.5 °F 33.9 °F 29.75 in NW 10.0 mph 23.0 mph 74 % 0.00 in 213 W/m2
11:44 41.4 °F 33.7 °F 29.75 in NW 14.0 mph 22.0 mph 74 % 0.00 in 199 W/m2
11:49 41.4 °F 33.7 °F 29.75 in WNW 15.0 mph 28.0 mph 74 % 0.00 in 176 W/m2
11:54 41.4 °F 33.7 °F 29.76 in NW 12.0 mph 20.0 mph 74 % 0.00 in 162 W/m2
11:59 41.7 °F 33.7 °F 29.76 in WNW 15.0 mph 27.0 mph 73 % 0.00 in 339 W/m2
12:04 42.1 °F 33.4 °F 29.76 in NW 17.0 mph 25.0 mph 71 % 0.00 in 517 W/m2
12:09 42.1 °F 33.4 °F 29.76 in NW 14.0 mph 24.0 mph 71 % 0.00 in 406 W/m2
12:14 42.1 °F 33.0 °F 29.77 in NW 16.0 mph 26.0 mph 70 % 0.00 in 192 W/m2
12:19 41.7 °F 32.3 °F 29.77 in NW 16.0 mph 28.0 mph 69 % 0.00 in 243 W/m2
12:24 41.9 °F 33.2 °F 29.77 in NW 10.0 mph 19.0 mph 71 % 0.00 in 165 W/m2
12:29 41.7 °F 32.3 °F 29.77 in NW 17.0 mph 28.0 mph 69 % 0.00 in 137 W/m2
12:34 42.1 °F 32.6 °F 29.77 in NW 13.0 mph 22.0 mph 69 % 0.00 in 445 W/m2
12:39 42.4 °F 33.0 °F 29.77 in NW 12.0 mph 29.0 mph 69 % 0.00 in 429 W/m2
12:44 42.8 °F 32.6 °F 29.78 in WNW 15.0 mph 22.0 mph 67 % 0.00 in 443 W/m2
12:49 43.2 °F 32.9 °F 29.78 in NW 12.0 mph 20.0 mph 67 % 0.00 in 418 W/m2
12:54 43.2 °F 31.8 °F 29.78 in NW 16.0 mph 24.0 mph 64 % 0.00 in 410 W/m2
12:59 43.2 °F 31.0 °F 29.78 in NW 13.0 mph 24.0 mph 62 % 0.00 in 406 W/m2
13:04 43.0 °F 30.8 °F 29.79 in NW 14.0 mph 21.0 mph 62 % 0.00 in 406 W/m2
13:09 43.0 °F 30.8 °F 29.79 in NW 14.0 mph 25.0 mph 62 % 0.00 in 399 W/m2
13:14 43.2 °F 31.0 °F 29.79 in WNW 12.0 mph 19.0 mph 62 % 0.00 in 396 W/m2
13:19 43.3 °F 30.4 °F 29.80 in NW 16.0 mph 29.0 mph 60 % 0.00 in 394 W/m2
13:24 43.3 °F 30.0 °F 29.80 in NW 17.0 mph 27.0 mph 59 % 0.00 in 388 W/m2
13:29 43.3 °F 30.8 °F 29.80 in NW 11.0 mph 20.0 mph 61 % 0.00 in 378 W/m2
13:34 43.5 °F 29.7 °F 29.80 in NW 17.0 mph 31.0 mph 58 % 0.00 in 385 W/m2
13:39 43.5 °F 29.7 °F 29.81 in NW 16.0 mph 24.0 mph 58 % 0.00 in 383 W/m2
13:44 43.3 °F 29.1 °F 29.81 in NW 15.0 mph 22.0 mph 57 % 0.00 in 373 W/m2
13:49 43.3 °F 29.5 °F 29.81 in NW 15.0 mph 25.0 mph 58 % 0.00 in 362 W/m2
13:54 43.3 °F 29.5 °F 29.81 in NW 14.0 mph 24.0 mph 58 % 0.00 in 366 W/m2
13:59 43.3 °F 29.5 °F 29.81 in NW 16.0 mph 23.0 mph 58 % 0.00 in 350 W/m2
14:04 43.3 °F 29.5 °F 29.81 in NW 14.0 mph 26.0 mph 58 % 0.00 in 353 W/m2
14:09 43.5 °F 30.1 °F 29.82 in WNW 11.0 mph 21.0 mph 59 % 0.00 in 345 W/m2
14:14 43.2 °F 29.4 °F 29.82 in NW 13.0 mph 25.0 mph 58 % 0.00 in 49 W/m2
14:19 42.6 °F 28.9 °F 29.82 in NW 11.0 mph 25.0 mph 58 % 0.00 in 295 W/m2
14:24 42.6 °F 29.3 °F 29.82 in NW 15.0 mph 30.0 mph 59 % 0.00 in 309 W/m2
14:29 42.8 °F 29.0 °F 29.83 in NW 9.0 mph 20.0 mph 58 % 0.00 in 302 W/m2
14:34 43.2 °F 29.4 °F 29.83 in NW 16.0 mph 22.0 mph 58 % 0.00 in 294 W/m2
14:39 43.2 °F 28.9 °F 29.83 in NW 15.0 mph 23.0 mph 57 % 0.00 in 285 W/m2
14:45 43.3 °F 29.1 °F 29.83 in NW 14.0 mph 21.0 mph 57 % 0.00 in 279 W/m2
14:50 43.2 °F 28.9 °F 29.83 in NW 14.0 mph 23.0 mph 57 % 0.00 in 272 W/m2
14:55 43.2 °F 28.9 °F 29.84 in NW 11.0 mph 20.0 mph 57 % 0.00 in 264 W/m2
15:00 43.3 °F 29.5 °F 29.84 in NW 13.0 mph 22.0 mph 58 % 0.00 in 250 W/m2
15:05 43.3 °F 29.5 °F 29.84 in NW 12.0 mph 20.0 mph 58 % 0.00 in 243 W/m2
15:10 43.0 °F 29.2 °F 29.84 in NW 11.0 mph 19.0 mph 58 % 0.00 in 58 W/m2
15:15 42.6 °F 29.3 °F 29.85 in NW 11.0 mph 20.0 mph 59 % 0.00 in 178 W/m2
15:20 42.4 °F 29.1 °F 29.85 in NW 11.0 mph 16.0 mph 59 % 0.00 in 37 W/m2
15:25 41.9 °F 28.2 °F 29.86 in NW 14.0 mph 23.0 mph 58 % 0.00 in 42 W/m2
15:30 41.5 °F 28.3 °F 29.85 in NW 13.0 mph 21.0 mph 59 % 0.00 in 62 W/m2
15:35 41.4 °F 28.5 °F 29.86 in NW 11.0 mph 20.0 mph 60 % 0.00 in 179 W/m2
15:40 41.4 °F 28.5 °F 29.86 in NW 12.0 mph 21.0 mph 60 % 0.00 in 163 W/m2
15:45 41.4 °F 28.9 °F 29.86 in NW 10.0 mph 18.0 mph 61 % 0.00 in 42 W/m2
15:50 41.4 °F 28.9 °F 29.86 in NW 12.0 mph 23.0 mph 61 % 0.00 in 33 W/m2
15:55 41.2 °F 28.7 °F 29.87 in WNW 11.0 mph 19.0 mph 61 % 0.00 in 32 W/m2
16:00 41.2 °F 28.7 °F 29.88 in NW 14.0 mph 21.0 mph 61 % 0.00 in 32 W/m2
16:05 41.2 °F 28.7 °F 29.88 in NW 11.0 mph 18.0 mph 61 % 0.00 in 35 W/m2
16:10 41.0 °F 28.6 °F 29.88 in NW 10.0 mph 19.0 mph 61 % 0.00 in 28 W/m2
16:15 40.8 °F 28.0 °F 29.88 in NW 10.0 mph 16.0 mph 60 % 0.00 in 26 W/m2
16:20 40.8 °F 28.8 °F 29.89 in WNW 8.0 mph 13.0 mph 62 % 0.00 in 25 W/m2
16:25 40.8 °F 30.3 °F 29.89 in WNW 13.0 mph 21.0 mph 66 % 0.00 in 21 W/m2
16:31 40.6 °F 30.9 °F 29.89 in WNW 11.0 mph 16.0 mph 68 % 0.00 in 19 W/m2
16:36 40.5 °F 31.1 °F 29.90 in WNW 9.0 mph 14.0 mph 69 % 0.00 in 18 W/m2
16:41 40.1 °F 31.1 °F 29.90 in WNW 8.0 mph 14.0 mph 70 % 0.00 in 16 W/m2
16:46 39.9 °F 31.3 °F 29.90 in WNW 9.0 mph 14.0 mph 71 % 0.00 in 14 W/m2
16:51 39.7 °F 31.4 °F 29.90 in WNW 7.0 mph 12.0 mph 72 % 0.00 in 11 W/m2
16:56 39.6 °F 32.0 °F 29.90 in WNW 9.0 mph 15.0 mph 74 % 0.00 in 9 W/m2
17:01 39.4 °F 32.1 °F 29.90 in WNW 7.0 mph 12.0 mph 75 % 0.00 in 7 W/m2
17:06 39.0 °F 32.1 °F 29.90 in WNW 7.0 mph 10.0 mph 76 % 0.00 in 5 W/m2
17:11 38.8 °F 32.2 °F 29.91 in WNW 5.0 mph 9.0 mph 77 % 0.00 in 0 W/m2
17:16 38.7 °F 32.4 °F 29.91 in WNW 6.0 mph 12.0 mph 78 % 0.00 in 0 W/m2
17:21 38.5 °F 32.2 °F 29.91 in WNW 8.0 mph 11.0 mph 78 % 0.00 in 0 W/m2
17:26 38.1 °F 32.2 °F 29.92 in WNW 8.0 mph 13.0 mph 79 % 0.00 in 0 W/m2
17:31 37.9 °F 32.0 °F 29.92 in WNW 8.0 mph 12.0 mph 79 % 0.00 in 0 W/m2
17:36 37.9 °F 32.3 °F 29.92 in WNW 8.0 mph 14.0 mph 80 % 0.00 in 0 W/m2
17:41 37.8 °F 32.1 °F 29.92 in WNW 8.0 mph 13.0 mph 80 % 0.00 in 0 W/m2
17:46 37.8 °F 32.5 °F 29.93 in WNW 10.0 mph 15.0 mph 81 % 0.00 in 0 W/m2
17:51 37.6 °F 32.3 °F 29.93 in WNW 10.0 mph 14.0 mph 81 % 0.00 in 0 W/m2
17:56 37.6 °F 32.3 °F 29.93 in WNW 9.0 mph 12.0 mph 81 % 0.00 in 0 W/m2
18:01 37.6 °F 32.6 °F 29.93 in WNW 10.0 mph 14.0 mph 82 % 0.00 in 0 W/m2
18:06 37.4 °F 32.4 °F 29.94 in WNW 10.0 mph 21.0 mph 82 % 0.00 in 0 W/m2
18:11 37.4 °F 32.4 °F 29.94 in WNW 10.0 mph 20.0 mph 82 % 0.00 in 0 W/m2
18:16 37.2 °F 32.2 °F 29.94 in WNW 8.0 mph 14.0 mph 82 % 0.00 in 0 W/m2
18:21 37.2 °F 32.2 °F 29.95 in WNW 10.0 mph 16.0 mph 82 % 0.00 in 0 W/m2
18:26 37.2 °F 32.2 °F 29.95 in WNW 8.0 mph 15.0 mph 82 % 0.00 in 0 W/m2
18:31 37.0 °F 32.1 °F 29.95 in WNW 7.0 mph 15.0 mph 82 % 0.00 in 0 W/m2
18:36 37.0 °F 32.1 °F 29.95 in WNW 11.0 mph 18.0 mph 82 % 0.00 in 0 W/m2
18:41 37.0 °F 32.1 °F 29.95 in WNW 8.0 mph 13.0 mph 82 % 0.00 in 0 W/m2
18:46 36.9 °F 31.9 °F 29.96 in WNW 9.0 mph 14.0 mph 82 % 0.00 in 0 W/m2
18:51 36.9 °F 32.2 °F 29.96 in WNW 6.0 mph 10.0 mph 83 % 0.00 in 0 W/m2
18:56 36.7 °F 32.0 °F 29.96 in WNW 8.0 mph 11.0 mph 83 % 0.00 in 0 W/m2
19:01 36.7 °F 32.0 °F 29.97 in WNW 7.0 mph 10.0 mph 83 % 0.00 in 0 W/m2
19:06 36.5 °F 31.8 °F 29.96 in WNW 5.0 mph 8.0 mph 83 % 0.00 in 0 W/m2
19:12 36.3 °F 31.7 °F 29.97 in WNW 5.0 mph 8.0 mph 83 % 0.00 in 0 W/m2
19:16 36.3 °F 31.7 °F 29.97 in WNW 7.0 mph 10.0 mph 83 % 0.00 in 0 W/m2
19:22 36.1 °F 31.5 °F 29.97 in WNW 6.0 mph 9.0 mph 83 % 0.00 in 0 W/m2
19:27 36.1 °F 31.5 °F 29.97 in WNW 6.0 mph 11.0 mph 83 % 0.00 in 0 W/m2
19:32 36.1 °F 31.8 °F 29.97 in WNW 7.0 mph 11.0 mph 84 % 0.00 in 0 W/m2
19:37 36.1 °F 31.8 °F 29.97 in WNW 8.0 mph 13.0 mph 84 % 0.00 in 0 W/m2
19:42 36.1 °F 31.8 °F 29.97 in WNW 7.0 mph 12.0 mph 84 % 0.00 in 0 W/m2
19:47 36.1 °F 31.8 °F 29.97 in WNW 6.0 mph 9.0 mph 84 % 0.00 in 0 W/m2
19:52 36.1 °F 31.8 °F 29.97 in WNW 7.0 mph 11.0 mph 84 % 0.00 in 0 W/m2
19:57 36.1 °F 32.1 °F 29.97 in WNW 7.0 mph 11.0 mph 85 % 0.00 in 0 W/m2
20:02 36.1 °F 31.8 °F 29.97 in WNW 8.0 mph 13.0 mph 84 % 0.00 in 0 W/m2
20:07 36.1 °F 31.8 °F 29.97 in WNW 7.0 mph 12.0 mph 84 % 0.00 in 0 W/m2
20:12 36.1 °F 31.8 °F 29.98 in WNW 6.0 mph 9.0 mph 84 % 0.00 in 0 W/m2
20:17 36.1 °F 31.8 °F 29.98 in WNW 6.0 mph 9.0 mph 84 % 0.00 in 0 W/m2
20:22 36.0 °F 31.6 °F 29.98 in WNW 8.0 mph 11.0 mph 84 % 0.00 in 0 W/m2
20:27 36.0 °F 31.6 °F 29.98 in WNW 7.0 mph 9.0 mph 84 % 0.00 in 0 W/m2
20:32 36.0 °F 31.6 °F 29.98 in WNW 8.0 mph 12.0 mph 84 % 0.00 in 0 W/m2
20:37 36.0 °F 31.6 °F 29.98 in WNW 7.0 mph 11.0 mph 84 % 0.00 in 0 W/m2
20:42 36.0 °F 31.6 °F 29.98 in WNW 6.0 mph 9.0 mph 84 % 0.00 in 0 W/m2
20:47 35.8 °F 31.4 °F 29.98 in WNW 5.0 mph 8.0 mph 84 % 0.00 in 0 W/m2
20:52 35.6 °F 31.2 °F 29.98 in WNW 5.0 mph 9.0 mph 84 % 0.00 in 0 W/m2
20:57 35.4 °F 31.1 °F 29.98 in NW 6.0 mph 8.0 mph 84 % 0.00 in 0 W/m2
21:02 35.2 °F 31.2 °F 29.98 in WNW 7.0 mph 11.0 mph 85 % 0.00 in 0 W/m2
21:07 35.2 °F 31.2 °F 29.98 in WNW 8.0 mph 11.0 mph 85 % 0.00 in 0 W/m2
21:12 35.4 °F 31.4 °F 29.98 in WNW 7.0 mph 10.0 mph 85 % 0.00 in 0 W/m2
21:17 35.2 °F 31.2 °F 29.98 in West 7.0 mph 10.0 mph 85 % 0.00 in 0 W/m2
21:23 35.2 °F 31.2 °F 29.99 in WNW 6.0 mph 8.0 mph 85 % 0.00 in 0 W/m2
21:28 35.2 °F 31.2 °F 29.99 in WNW 6.0 mph 8.0 mph 85 % 0.00 in 0 W/m2
21:33 35.1 °F 31.0 °F 29.99 in WNW 6.0 mph 11.0 mph 85 % 0.00 in 0 W/m2
21:38 35.1 °F 31.3 °F 29.99 in NW 5.0 mph 7.0 mph 86 % 0.00 in 0 W/m2
21:43 35.1 °F 31.3 °F 29.99 in WNW 5.0 mph 8.0 mph 86 % 0.00 in 0 W/m2
21:48 35.1 °F 31.3 °F 29.99 in WNW 4.0 mph 6.0 mph 86 % 0.00 in 0 W/m2
21:53 34.9 °F 31.1 °F 29.99 in WNW 4.0 mph 5.0 mph 86 % 0.00 in 0 W/m2
21:58 34.7 °F 30.9 °F 29.99 in WNW 5.0 mph 8.0 mph 86 % 0.00 in 0 W/m2
22:03 34.5 °F 30.8 °F 29.98 in WNW 6.0 mph 10.0 mph 86 % 0.00 in 0 W/m2
22:08 34.7 °F 31.2 °F 29.99 in WNW 7.0 mph 9.0 mph 87 % 0.00 in 0 W/m2
22:13 34.9 °F 31.4 °F 29.99 in WNW 6.0 mph 9.0 mph 87 % 0.00 in 0 W/m2
22:18 34.9 °F 31.4 °F 29.99 in WNW 7.0 mph 11.0 mph 87 % 0.00 in 0 W/m2
22:23 34.9 °F 31.4 °F 29.99 in WNW 9.0 mph 12.0 mph 87 % 0.00 in 0 W/m2
22:28 35.1 °F 31.6 °F 29.99 in WNW 10.0 mph 14.0 mph 87 % 0.00 in 0 W/m2
22:33 35.2 °F 31.5 °F 29.99 in WNW 6.0 mph 10.0 mph 86 % 0.00 in 0 W/m2
22:38 35.2 °F 31.5 °F 29.99 in West 4.0 mph 7.0 mph 86 % 0.00 in 0 W/m2
22:43 35.1 °F 31.3 °F 29.99 in WNW 7.0 mph 12.0 mph 86 % 0.00 in 0 W/m2
22:48 34.9 °F 31.1 °F 29.99 in WNW 6.0 mph 9.0 mph 86 % 0.00 in 0 W/m2
22:53 34.9 °F 31.1 °F 29.99 in West 2.0 mph 6.0 mph 86 % 0.00 in 0 W/m2
22:58 34.7 °F 30.9 °F 29.99 in WNW 1.0 mph 2.0 mph 86 % 0.00 in 0 W/m2
23:03 34.5 °F 30.8 °F 29.99 in Calm   1.0 mph 86 % 0.00 in 0 W/m2
23:08 34.2 °F 30.4 °F 29.99 in Calm   1.0 mph 86 % 0.00 in 0 W/m2
23:13 34.0 °F 30.2 °F 29.99 in Calm     86 % 0.00 in 0 W/m2
23:18 33.6 °F 29.9 °F 29.99 in Calm     86 % 0.00 in 0 W/m2
23:23 33.3 °F 29.5 °F 29.99 in Calm     86 % 0.00 in 0 W/m2
23:28 33.1 °F 29.6 °F 29.98 in Calm     87 % 0.00 in 0 W/m2
23:33 32.9 °F 29.5 °F 29.99 in West 1.0 mph 4.0 mph 87 % 0.00 in 0 W/m2
23:38 32.9 °F 29.7 °F 29.99 in Calm     88 % 0.00 in 0 W/m2
23:43 32.9 °F 29.7 °F 29.99 in West 1.0 mph 2.0 mph 88 % 0.00 in 0 W/m2
23:48 33.1 °F 30.2 °F 29.99 in Calm   2.0 mph 89 % 0.00 in 0 W/m2
23:53 33.1 °F 30.2 °F 29.99 in Calm     89 % 0.00 in 0 W/m2
23:58 33.1 °F 29.9 °F 29.99 in Calm     88 % 0.00 in 0 W/m2
Delerius-Weather
Compliments of Weather Underground - 2.25 mb

Data updates at regular intervals.